createdAt,value
2023-03-06T00:01:09.661Z,2.33
2023-03-06T00:03:38.022Z,2.60
2023-03-06T00:06:08.687Z,2.88
2023-03-06T00:08:36.880Z,4.20
2023-03-06T00:11:05.318Z,2.97
2023-03-06T00:13:35.058Z,2.75
2023-03-06T00:16:04.890Z,3.30
2023-03-06T00:18:33.070Z,3.10
2023-03-06T00:21:01.412Z,2.42
2023-03-06T00:23:31.067Z,2.92
2023-03-06T00:25:59.679Z,2.58
2023-03-06T00:28:30.947Z,2.95
2023-03-06T00:30:59.201Z,2.78
2023-03-06T00:33:27.405Z,3.63
2023-03-06T00:35:55.845Z,2.92
2023-03-06T00:38:25.386Z,2.67
2023-03-06T00:40:55.021Z,2.85
2023-03-06T00:43:23.200Z,2.72
2023-03-06T00:45:51.499Z,2.33
2023-03-06T00:48:19.735Z,2.90
2023-03-06T00:50:47.948Z,3.50
2023-03-06T00:53:16.246Z,3.63
2023-03-06T00:55:45.885Z,3.33
2023-03-06T00:58:15.423Z,3.25
2023-03-06T01:00:43.803Z,2.80
2023-03-06T01:03:12.140Z,3.08
2023-03-06T01:05:41.070Z,2.42
2023-03-06T01:08:09.437Z,3.15
2023-03-06T01:10:40.820Z,4.30
2023-03-06T01:13:10.622Z,3.13
2023-03-06T01:15:40.821Z,3.17
2023-03-06T01:18:09.082Z,3.22
2023-03-06T01:20:38.517Z,4.13
2023-03-06T01:23:06.746Z,3.08
2023-03-06T01:25:35.023Z,4.15
2023-03-06T01:28:03.212Z,3.47
2023-03-06T01:30:31.932Z,3.83
2023-03-06T01:33:01.482Z,3.05
2023-03-06T01:35:29.726Z,3.17
2023-03-06T01:37:57.972Z,4.05
2023-03-06T01:40:26.423Z,2.95
2023-03-06T01:42:54.902Z,3.20
2023-03-06T01:46:00.356Z,3.97
2023-03-06T01:48:30.085Z,3.25
2023-03-06T01:50:58.692Z,4.32
2023-03-06T01:53:26.918Z,3.35
2023-03-06T01:55:55.532Z,2.50
2023-03-06T01:58:24.143Z,3.00
2023-03-06T02:00:52.620Z,4.25
2023-03-06T02:03:24.080Z,3.45
2023-03-06T02:05:54.414Z,4.35
2023-03-06T02:08:25.102Z,3.33
2023-03-06T02:11:02.747Z,4.07
2023-03-06T02:13:31.463Z,3.30
2023-03-06T02:16:00.036Z,4.28
2023-03-06T02:18:28.640Z,4.45
2023-03-06T02:21:00.990Z,3.25
2023-03-06T02:23:34.322Z,3.20
2023-03-06T02:26:05.018Z,4.03
2023-03-06T02:28:33.498Z,3.60
2023-03-06T02:31:02.374Z,3.55
2023-03-06T02:33:31.174Z,3.05
2023-03-06T02:36:01.962Z,3.28
2023-03-06T02:38:34.343Z,4.28
2023-03-06T02:41:06.797Z,3.80
2023-03-06T02:43:39.553Z,3.72
2023-03-06T02:46:09.078Z,3.33
2023-03-06T02:48:37.504Z,4.85
2023-03-06T02:51:05.888Z,3.80
2023-03-06T02:53:34.421Z,3.60
2023-03-06T02:56:03.992Z,3.38
2023-03-06T02:58:32.648Z,3.97
2023-03-06T03:01:01.351Z,3.67
2023-03-06T03:03:31.217Z,4.60
2023-03-06T03:05:59.788Z,3.58
2023-03-06T03:08:31.762Z,4.50
2023-03-06T03:11:04.758Z,4.13
2023-03-06T03:13:41.022Z,4.00
2023-03-06T03:16:15.825Z,3.22
2023-03-06T03:18:48.207Z,3.67
2023-03-06T03:21:19.119Z,3.22
2023-03-06T03:23:49.432Z,4.32
2023-03-06T03:26:21.307Z,4.40
2023-03-06T03:29:01.890Z,4.30
2023-03-06T03:31:30.258Z,3.85
2023-03-06T03:33:59.002Z,4.95
2023-03-06T03:36:27.555Z,3.85
2023-03-06T03:38:58.011Z,4.03
2023-03-06T03:41:28.276Z,5.97
2023-03-06T03:43:57.373Z,4.72
2023-03-06T03:46:26.350Z,4.55
2023-03-06T03:48:57.178Z,4.47
2023-03-06T03:51:25.703Z,4.70
2023-03-06T03:53:57.245Z,4.25
2023-03-06T03:56:29.887Z,5.72
2023-03-06T04:01:39.801Z,4.25
2023-03-06T04:04:09.116Z,4.47
2023-03-06T04:06:37.790Z,6.45
2023-03-06T04:09:07.173Z,5.75
2023-03-06T04:11:38.691Z,4.05
2023-03-06T04:14:08.373Z,4.47
2023-03-06T04:16:36.924Z,6.40
2023-03-06T04:19:12.144Z,5.15
2023-03-06T04:21:41.422Z,4.93
2023-03-06T04:24:10.848Z,4.38
2023-03-06T04:26:40.511Z,4.60
2023-03-06T04:29:09.136Z,5.10
2023-03-06T04:31:37.443Z,4.20
2023-03-06T04:34:06.227Z,5.03
2023-03-06T04:36:35.743Z,5.50
2023-03-06T04:39:08.871Z,5.70
2023-03-06T04:41:37.950Z,4.47
2023-03-06T04:44:08.113Z,4.82
2023-03-06T04:46:36.828Z,4.28
2023-03-06T04:49:05.244Z,4.72
2023-03-06T04:51:33.613Z,5.38
2023-03-06T04:54:02.303Z,4.85
2023-03-06T04:56:31.047Z,5.65
2023-03-06T04:58:59.324Z,5.40
2023-03-06T05:01:28.929Z,5.70
2023-03-06T05:03:57.474Z,5.50
2023-03-06T05:06:25.735Z,3.88
2023-03-06T05:08:54.334Z,5.10
2023-03-06T05:11:22.637Z,5.35
2023-03-06T05:13:52.578Z,4.38
2023-03-06T05:16:20.958Z,6.50
2023-03-06T05:18:50.915Z,4.88
2023-03-06T05:21:19.146Z,5.50
2023-03-06T05:23:47.942Z,4.85
2023-03-06T05:26:16.996Z,4.00
2023-03-06T05:28:45.261Z,5.22
2023-03-06T05:31:13.825Z,5.47
2023-03-06T05:33:42.410Z,4.80
2023-03-06T05:36:12.238Z,5.28
2023-03-06T05:38:40.481Z,5.13
2023-03-06T05:41:12.699Z,4.60
2023-03-06T05:43:41.482Z,6.15
2023-03-06T05:46:11.742Z,4.65
2023-03-06T05:48:40.214Z,4.38
2023-03-06T05:51:08.543Z,5.18
2023-03-06T05:53:38.974Z,4.78
2023-03-06T05:56:09.634Z,4.95
2023-03-06T05:58:39.214Z,5.40
2023-03-06T06:01:12.242Z,5.90
2023-03-06T06:03:41.663Z,4.50
2023-03-06T06:06:12.016Z,5.15
2023-03-06T06:08:43.016Z,4.25
2023-03-06T06:11:13.776Z,5.13
2023-03-06T06:13:42.448Z,6.85
2023-03-06T06:16:12.581Z,6.15
2023-03-06T06:18:41.549Z,6.00
2023-03-06T06:21:11.445Z,6.30
2023-03-06T06:23:42.169Z,5.68
2023-03-06T06:26:11.093Z,5.18
2023-03-06T06:28:40.106Z,5.00
2023-03-06T06:31:13.351Z,6.53
2023-03-06T06:33:42.750Z,5.25
2023-03-06T06:36:17.674Z,5.53
2023-03-06T06:38:47.382Z,5.03
2023-03-06T06:44:08.480Z,5.22
2023-03-06T06:47:20.818Z,5.95
2023-03-06T06:49:27.692Z,5.70
2023-03-06T06:51:55.965Z,5.47
2023-03-06T06:54:25.692Z,5.32
2023-03-06T06:56:53.946Z,5.43
2023-03-06T06:59:23.949Z,5.38
2023-03-06T07:01:52.795Z,5.22
2023-03-06T07:04:21.898Z,5.75
2023-03-06T07:06:50.208Z,5.28
2023-03-06T07:09:20.432Z,6.13
2023-03-06T07:11:50.098Z,6.10
2023-03-06T07:14:18.626Z,5.90
2023-03-06T07:16:46.832Z,4.63
2023-03-06T07:19:15.172Z,6.32
2023-03-06T07:21:43.491Z,5.30
2023-03-06T07:24:11.874Z,6.22
2023-03-06T07:26:40.539Z,4.95
2023-03-06T07:29:10.152Z,4.68
2023-03-06T07:31:38.682Z,5.88
2023-03-06T07:34:06.940Z,4.43
2023-03-06T07:36:35.624Z,4.80
2023-03-06T07:39:03.896Z,4.93
2023-03-06T07:41:32.501Z,5.22
2023-03-06T07:44:00.877Z,5.00
2023-03-06T07:46:30.808Z,6.28
2023-03-06T07:48:59.309Z,5.75
2023-03-06T07:51:27.868Z,5.03
2023-03-06T07:53:56.059Z,5.22
2023-03-06T07:56:24.750Z,7.05
2023-03-06T07:58:52.917Z,5.50
2023-03-06T08:01:23.977Z,6.18
2023-03-06T08:03:53.800Z,6.13
2023-03-06T08:06:24.006Z,5.93
2023-03-06T08:08:53.221Z,6.55
2023-03-06T08:11:25.234Z,5.68
2023-03-06T08:13:54.362Z,6.28
2023-03-06T08:16:24.262Z,6.53
2023-03-06T08:18:53.894Z,6.22
2023-03-06T08:21:23.961Z,6.00
2023-03-06T08:23:52.689Z,5.50
2023-03-06T08:26:23.907Z,6.65
2023-03-06T08:28:53.023Z,5.22
2023-03-06T08:31:28.652Z,5.60
2023-03-06T08:34:00.283Z,5.55
2023-03-06T08:36:29.854Z,5.30
2023-03-06T08:38:58.239Z,5.80
2023-03-06T08:41:26.912Z,5.78
2023-03-06T08:43:55.324Z,5.88
2023-03-06T08:46:26.030Z,7.70
2023-03-06T08:48:54.487Z,6.22
2023-03-06T08:51:24.712Z,6.07
2023-03-06T08:53:55.219Z,7.50
2023-03-06T08:56:26.168Z,6.70
2023-03-06T08:58:55.623Z,5.25
2023-03-06T09:01:25.881Z,6.97
2023-03-06T09:03:56.051Z,6.75
2023-03-06T09:06:26.487Z,7.00
2023-03-06T09:08:55.802Z,5.40
2023-03-06T09:11:26.314Z,5.55
2023-03-06T09:13:55.162Z,7.35
2023-03-06T09:16:24.275Z,7.05
2023-03-06T09:18:53.989Z,6.47
2023-03-06T09:21:23.914Z,6.60
2023-03-06T09:23:53.512Z,6.28
2023-03-06T09:26:27.959Z,6.00
2023-03-06T09:29:01.538Z,6.35
2023-03-06T09:31:32.022Z,6.45
2023-03-06T09:34:00.255Z,6.72
2023-03-06T09:36:29.197Z,6.95
2023-03-06T09:38:58.772Z,6.88
2023-03-06T09:41:32.343Z,5.57
2023-03-06T09:44:06.060Z,6.90
2023-03-06T09:46:48.363Z,7.35
2023-03-06T09:49:41.121Z,7.05
2023-03-06T09:52:31.138Z,6.43
2023-03-06T09:55:03.725Z,5.72
2023-03-06T09:57:36.806Z,6.63
2023-03-06T10:00:13.004Z,6.25
2023-03-06T10:02:45.263Z,6.28
2023-03-06T10:05:17.820Z,6.80
2023-03-06T10:07:51.730Z,6.40
2023-03-06T10:10:24.062Z,8.07
2023-03-06T10:13:03.381Z,6.85
2023-03-06T10:15:34.641Z,7.35
2023-03-06T10:18:04.329Z,7.35
2023-03-06T10:20:38.442Z,7.05
2023-03-06T10:23:22.076Z,8.30
2023-03-06T10:26:00.399Z,8.25
2023-03-06T10:28:35.437Z,8.70
2023-03-06T10:31:10.683Z,10.32
2023-03-06T10:33:47.735Z,9.43
2023-03-06T10:36:17.937Z,11.50
2023-03-06T10:38:48.524Z,11.25
2023-03-06T10:41:29.487Z,10.63
2023-03-06T10:44:23.583Z,11.32
2023-03-06T10:46:54.695Z,11.75
2023-03-06T10:49:35.657Z,10.55
2023-03-06T10:52:07.840Z,7.88
2023-03-06T10:54:38.110Z,9.55
2023-03-06T10:57:25.777Z,8.93
2023-03-06T10:59:56.069Z,10.80
2023-03-06T11:02:36.324Z,8.38
2023-03-06T11:05:05.488Z,9.90
2023-03-06T11:07:35.355Z,7.90
2023-03-06T11:10:16.751Z,7.18
2023-03-06T11:12:59.535Z,8.60
2023-03-06T11:15:28.505Z,7.85
2023-03-06T11:18:00.219Z,9.23
2023-03-06T11:20:48.662Z,8.30
2023-03-06T11:23:22.948Z,9.38
2023-03-06T11:25:56.653Z,9.35
2023-03-06T11:28:30.336Z,10.45
2023-03-06T11:31:04.937Z,10.65
2023-03-06T11:33:40.329Z,8.03
2023-03-06T11:36:15.546Z,9.43
2023-03-06T11:38:50.014Z,9.15
2023-03-06T11:41:27.947Z,8.60
2023-03-06T11:44:04.787Z,9.70
2023-03-06T11:46:38.945Z,9.73
2023-03-06T11:49:19.587Z,9.55
2023-03-06T11:51:52.887Z,8.63
2023-03-06T11:54:21.287Z,8.75
2023-03-06T11:56:57.728Z,8.88
2023-03-06T11:59:57.204Z,7.95
2023-03-06T12:02:39.668Z,7.57
2023-03-06T12:05:27.150Z,9.10
2023-03-06T12:08:04.728Z,6.63
2023-03-06T12:10:40.993Z,7.45
2023-03-06T12:13:27.854Z,8.25
2023-03-06T12:16:22.907Z,7.10
2023-03-06T12:18:58.794Z,7.20
2023-03-06T12:21:34.789Z,6.18
2023-03-06T12:24:17.268Z,7.03
2023-03-06T12:26:58.537Z,7.80
2023-03-06T12:29:53.476Z,5.55
2023-03-06T12:32:36.327Z,6.47
2023-03-06T12:35:41.860Z,5.35
2023-03-06T12:38:33.481Z,5.07
2023-03-06T12:41:14.514Z,6.05
2023-03-06T12:44:16.073Z,4.65
2023-03-06T12:46:47.696Z,5.20
2023-03-06T12:49:31.901Z,5.03
2023-03-06T12:52:01.696Z,3.90
2023-03-06T12:54:32.131Z,3.80
2023-03-06T12:57:01.833Z,3.05
2023-03-06T12:59:42.743Z,2.88
2023-03-06T13:02:35.414Z,3.60
2023-03-06T13:05:35.254Z,3.67
2023-03-06T13:08:34.472Z,3.45
2023-03-06T13:11:20.593Z,3.00
2023-03-06T13:13:51.594Z,3.60
2023-03-06T13:16:32.843Z,4.15
2023-03-06T13:19:13.015Z,3.60
2023-03-06T13:22:02.434Z,4.75
2023-03-06T13:24:34.786Z,4.35
2023-03-06T13:27:08.940Z,5.03
2023-03-06T13:30:06.594Z,7.10
2023-03-06T13:32:37.038Z,4.70
2023-03-06T13:35:48.466Z,4.90
2023-03-06T13:44:47.739Z,6.18
2023-03-06T13:48:01.312Z,6.45
2023-03-06T13:50:37.350Z,4.90
2023-03-06T13:53:41.804Z,6.53
2023-03-06T13:56:42.511Z,6.25
2023-03-06T13:59:54.417Z,5.65
2023-03-06T14:02:41.961Z,6.55
2023-03-06T14:05:14.087Z,5.25
2023-03-06T14:07:45.137Z,6.22
2023-03-06T14:10:22.656Z,5.95
2023-03-06T14:13:14.975Z,6.30
2023-03-06T14:15:47.945Z,5.88
2023-03-06T14:18:29.176Z,5.00
2023-03-06T14:21:01.359Z,5.35
2023-03-06T14:23:32.272Z,5.03
2023-03-06T14:26:08.823Z,6.25
2023-03-06T14:28:37.498Z,5.60
2023-03-06T14:31:08.367Z,5.20
2023-03-06T14:33:44.190Z,6.00
2023-03-06T14:36:16.352Z,5.60
2023-03-06T14:39:01.122Z,5.95
2023-03-06T14:41:37.897Z,5.63
2023-03-06T14:44:11.158Z,6.72
2023-03-06T14:46:41.368Z,5.53
2023-03-06T14:49:10.903Z,6.28
2023-03-06T14:51:43.567Z,6.53
2023-03-06T14:54:17.781Z,5.82
2023-03-06T14:56:48.439Z,6.50
2023-03-06T14:59:21.654Z,7.10
2023-03-06T15:01:53.782Z,6.43
2023-03-06T15:04:30.172Z,5.28
2023-03-06T15:06:59.869Z,5.38
2023-03-06T15:09:30.850Z,7.05
2023-03-06T15:12:02.103Z,6.50
2023-03-06T15:14:33.794Z,5.45
2023-03-06T15:17:25.739Z,7.80
2023-03-06T15:19:56.206Z,7.88
2023-03-06T15:22:29.653Z,7.93
2023-03-06T15:25:21.052Z,7.88
2023-03-06T15:27:51.898Z,7.03
2023-03-06T15:30:26.334Z,7.50
2023-03-06T15:38:26.937Z,7.20
2023-03-06T15:40:56.934Z,6.05
2023-03-06T15:43:26.223Z,7.05
2023-03-06T15:45:59.599Z,7.75
2023-03-06T15:48:29.302Z,7.65
2023-03-06T15:50:59.018Z,6.65
2023-03-06T15:53:27.242Z,6.75
2023-03-06T15:55:56.065Z,8.30
2023-03-06T15:58:26.843Z,7.22
2023-03-06T16:00:55.128Z,7.57
2023-03-06T16:03:23.769Z,6.00
2023-03-06T16:05:51.942Z,5.70
2023-03-06T16:08:22.318Z,5.78
2023-03-06T16:10:51.478Z,6.43
2023-03-06T16:13:27.135Z,5.85
2023-03-06T16:15:55.858Z,6.38
2023-03-06T16:18:24.603Z,5.85
2023-03-06T16:20:52.864Z,6.70
2023-03-06T16:23:23.138Z,7.50
2023-03-06T16:25:51.473Z,8.15
2023-03-06T16:28:20.196Z,5.70
2023-03-06T16:30:48.490Z,5.30
2023-03-06T16:33:16.750Z,4.82
2023-03-06T16:35:46.758Z,7.32
2023-03-06T16:38:16.758Z,6.35
2023-03-06T16:40:46.363Z,6.43
2023-03-06T16:43:16.493Z,6.85
2023-03-06T16:45:45.012Z,6.05
2023-03-06T16:48:18.512Z,6.25
2023-03-06T16:50:46.921Z,6.75
2023-03-06T16:53:16.660Z,4.93
2023-03-06T16:55:46.317Z,6.03
2023-03-06T16:58:15.139Z,5.18
2023-03-06T17:00:43.723Z,7.35
2023-03-06T17:03:11.960Z,7.72
2023-03-06T17:05:40.361Z,4.95
2023-03-06T17:08:09.185Z,7.22
2023-03-06T17:10:41.289Z,5.93
2023-03-06T17:13:11.024Z,5.60
2023-03-06T17:15:39.707Z,7.05
2023-03-06T17:18:08.079Z,5.05
2023-03-06T17:20:36.657Z,6.55
2023-03-06T17:23:04.867Z,5.43
2023-03-06T17:25:35.392Z,5.68
2023-03-06T17:28:03.614Z,6.05
2023-03-06T17:30:33.219Z,6.03
2023-03-06T17:33:01.580Z,6.00
2023-03-06T17:35:30.083Z,6.35
2023-03-06T17:37:58.813Z,5.70
2023-03-06T17:40:27.093Z,8.30
2023-03-06T17:42:55.352Z,6.63
2023-03-06T17:45:23.582Z,5.82
2023-03-06T17:47:55.561Z,6.72
2023-03-06T17:50:23.835Z,7.15
2023-03-06T17:52:52.081Z,6.95
2023-03-06T17:55:20.322Z,11.48
2023-03-06T17:57:48.627Z,8.25
2023-03-06T18:00:17.593Z,5.57
2023-03-06T18:02:46.234Z,5.20
2023-03-06T18:05:17.490Z,6.38
2023-03-06T18:07:45.870Z,4.43
2023-03-06T18:10:14.436Z,5.93
2023-03-06T18:12:42.717Z,7.25
2023-03-06T18:15:11.476Z,5.90
2023-03-06T18:17:39.753Z,7.80
2023-03-06T18:20:08.804Z,6.97
2023-03-06T18:22:39.166Z,5.85
2023-03-06T18:25:08.277Z,5.90
2023-03-06T18:27:36.578Z,11.38
2023-03-06T18:30:06.485Z,11.48
2023-03-06T18:32:34.820Z,12.57
2023-03-06T18:35:03.211Z,7.05
2023-03-06T18:37:31.931Z,8.10
2023-03-06T18:40:01.715Z,9.45
2023-03-06T18:42:30.331Z,12.70
2023-03-06T18:44:58.512Z,8.13
2023-03-06T18:47:27.150Z,7.38
2023-03-06T18:49:55.799Z,8.00
2023-03-06T18:52:24.362Z,6.28
2023-03-06T18:54:53.553Z,7.68
2023-03-06T18:57:23.237Z,7.45
2023-03-06T18:59:51.777Z,6.18
2023-03-06T19:02:20.390Z,7.10
2023-03-06T19:04:49.179Z,7.93
2023-03-06T19:07:17.730Z,8.60
2023-03-06T19:09:46.070Z,6.65
2023-03-06T19:12:14.256Z,7.63
2023-03-06T19:14:44.065Z,6.28
2023-03-06T19:17:12.443Z,5.43
2023-03-06T19:19:40.690Z,5.45
2023-03-06T19:22:08.870Z,6.38
2023-03-06T19:24:37.124Z,5.95
2023-03-06T19:27:05.589Z,5.78
2023-03-06T19:29:34.429Z,6.28
2023-03-06T19:32:04.202Z,6.43
2023-03-06T19:34:32.932Z,6.15
2023-03-06T19:37:01.152Z,6.60
2023-03-06T19:39:29.398Z,6.38
2023-03-06T19:41:57.588Z,6.32
2023-03-06T19:44:26.136Z,6.05
2023-03-06T19:46:54.381Z,7.82
2023-03-06T19:49:23.963Z,6.90
2023-03-06T19:51:52.476Z,4.85
2023-03-06T19:54:23.592Z,6.40
2023-03-06T19:56:52.478Z,7.53
2023-03-06T19:59:21.323Z,7.57
2023-03-06T20:01:49.798Z,4.78
2023-03-06T20:04:18.640Z,6.05
2023-03-06T20:06:51.677Z,7.15
2023-03-06T20:09:20.809Z,6.60
2023-03-06T20:11:49.276Z,8.68
2023-03-06T20:14:18.386Z,6.28
2023-03-06T20:16:46.719Z,6.43
2023-03-06T20:19:15.373Z,7.10
2023-03-06T20:21:43.918Z,6.32
2023-03-06T20:24:16.875Z,7.35
2023-03-06T20:26:45.977Z,6.30
2023-03-06T20:29:14.553Z,8.15
2023-03-06T20:31:42.836Z,5.78
2023-03-06T20:34:12.000Z,8.27
2023-03-06T20:36:43.121Z,7.40
2023-03-06T20:39:15.826Z,6.97
2023-03-06T20:41:44.649Z,8.77
2023-03-06T20:44:15.970Z,6.90
2023-03-06T20:47:08.942Z,7.93
2023-03-06T20:49:37.308Z,8.32
2023-03-06T20:52:07.968Z,7.95
2023-03-06T20:54:37.576Z,5.03
2023-03-06T20:57:05.855Z,7.30
2023-03-06T20:59:34.180Z,8.02
2023-03-06T21:02:02.937Z,8.38
2023-03-06T21:04:31.370Z,6.32
2023-03-06T21:06:59.573Z,5.88
2023-03-06T21:09:28.230Z,6.30
2023-03-06T21:11:57.946Z,5.93
2023-03-06T21:14:26.116Z,6.72
2023-03-06T21:16:54.389Z,6.65
2023-03-06T21:19:22.557Z,5.72
2023-03-06T21:21:50.854Z,7.47
2023-03-06T21:24:21.217Z,7.05
2023-03-06T21:26:51.248Z,6.35
2023-03-06T21:29:20.808Z,5.30
2023-03-06T21:31:49.370Z,7.25
2023-03-06T21:34:17.602Z,6.30
2023-03-06T21:36:46.232Z,6.75
2023-03-06T21:39:14.450Z,6.53
2023-03-06T21:41:42.634Z,6.30
2023-03-06T21:44:11.800Z,5.30
2023-03-06T21:46:41.763Z,6.32
2023-03-06T21:49:09.936Z,7.13
2023-03-06T21:51:38.138Z,5.93
2023-03-06T21:54:09.599Z,6.38
2023-03-06T21:56:37.813Z,8.07
2023-03-06T21:59:05.981Z,6.30
2023-03-06T22:01:34.516Z,8.25
2023-03-06T22:04:04.493Z,6.93
2023-03-06T22:06:33.092Z,8.27
2023-03-06T22:09:02.374Z,7.88
2023-03-06T22:11:34.716Z,7.13
2023-03-06T22:14:03.189Z,7.70
2023-03-06T22:16:31.987Z,7.28
2023-03-06T22:19:00.592Z,7.50
2023-03-06T22:21:30.755Z,7.00
2023-03-06T22:23:59.664Z,8.23
2023-03-06T22:26:28.954Z,8.10
2023-03-06T22:28:57.469Z,7.50
2023-03-06T22:31:27.203Z,7.65
2023-03-06T22:33:56.918Z,6.97
2023-03-06T22:36:26.441Z,9.75
2023-03-06T22:38:58.408Z,5.25
2023-03-06T22:41:27.840Z,7.97
2023-03-06T22:43:56.925Z,6.82
2023-03-06T22:46:25.542Z,7.78
2023-03-06T22:48:53.821Z,8.77
2023-03-06T22:51:22.681Z,7.95
2023-03-06T22:53:52.073Z,7.80
2023-03-06T22:56:23.148Z,7.20
2023-03-06T22:58:51.426Z,7.07
2023-03-06T23:01:21.381Z,8.68
2023-03-06T23:03:51.508Z,7.93
2023-03-06T23:06:21.676Z,8.93
2023-03-06T23:08:51.768Z,7.10
2023-03-06T23:11:22.374Z,8.45
2023-03-06T23:14:08.972Z,7.63
2023-03-06T23:16:56.391Z,8.75
2023-03-06T23:19:42.944Z,7.20
2023-03-06T23:22:29.877Z,8.32
2023-03-06T23:25:16.557Z,5.20
2023-03-06T23:27:46.609Z,3.58
2023-03-06T23:30:15.845Z,8.63
2023-03-06T23:32:45.980Z,9.93
2023-03-06T23:35:14.685Z,7.38
2023-03-06T23:37:43.385Z,7.05
2023-03-06T23:40:13.770Z,6.78
2023-03-06T23:42:42.050Z,7.85
2023-03-06T23:45:12.888Z,8.95
2023-03-06T23:47:41.486Z,6.18
2023-03-06T23:50:10.667Z,8.95
2023-03-06T23:52:39.956Z,8.90
2023-03-06T23:55:09.263Z,10.05
2023-03-06T23:57:37.832Z,8.05
